Mill Rose Farm Restricted Landing Area

Jump to: basic info | weather | runways | comments

Related pages: nearby airports | nearby navaids | notams | map

Basic information (top)

Codes: IL68
Location: lon 42.077202, lat -88.159798, elev 850 ft / 259 m msl
Status: small_airport

Weather (top)

Current conditions for Dupage Airport 11nm (20km) SSW (rec'd 2014/08/29 15:52Z):

KDPA 291552Z AUTO 19009KT 8SM FEW110 26/22 A2998 RMK AO2 SLP147 T02610217

Airport forecast for Dupage Airport 11nm (20km) SSW (rec'd 2014/08/29 12:36Z):

TAF KDPA 291134Z 2912/3012 15005KT P6SM OVC120 
     FM291500 17010G18KT P6SM SCT050 BKN080 
     FM292000 19013G20KT P6SM VCSH SCT060 BKN150 
     FM300200 18010KT P6SM VCTS SCT035CB OVC060 PROB30 3002/3006 4SM TSRA BR BKN035CB 
     FM300800 22012KT 4SM -SHRA BR BKN025 OVC050

Runways (top)

N/S: 2,500 x 100 ft (762 x 30 m) — grass — lighted

Latest comments (top)

No comments yet for Mill Rose Farm Restricted Landing Area

More... (top)

See also NOTAMs and nearby airports and navaids, or visit the Mill Rose Farm Restricted Landing Area page at the main OurAirports website..